Emirates Star — 9VLH5 — position and weather

sailwx.info

Track history (hours):
 
Tides and Currents Weather Stations Pressure Air Temp Water Temp Dewpoint Dewpoint Depression Visibility Wind Speed Wind Dir Waves Ship Positions

Emirates Star

Last reported at 2014-May-01 21:31 UTC. Time now 2014-Sep-22 00:10 UTC.
Position S 32°29' W 071°45'.
Warning: this ship's position is months out of date.

Length 183 m; draft 8.1 m.

Type: Ship. MMSI: 565886000.

Date/timePositionNaut miles runAvg speedWind from/ knotsBaromVisibWave heightAir tempDewpointWater temp
2014-May-01 21:31S 32°29' W 071°45'1313.0
2014-May-01 20:33S 32°41' W 071°40'10 9.7
2014-May-01 19:33S 32°45' W 071°30'0 0.0
2014-May-01 18:24S 32°46' W 071°30'0 0.0
2014-May-01 17:33S 32°46' W 071°30'0 0.1
2014-May-01 16:33S 32°46' W 071°30'0 0.4
2014-May-01 15:31S 32°46' W 071°30'0 0.0
2014-Apr-30 16:19S 32°46' W 071°30'0 0.0
2014-Apr-30 15:07S 32°46' W 071°30'0 0.0
2014-Apr-30 14:19S 32°46' W 071°30'0 0.0
2014-Apr-29 20:10S 32°46' W 071°30'0 0.0
2014-Apr-29 17:16S 32°46' W 071°30'0 0.0
2014-Apr-29 16:13S 32°46' W 071°30'0 0.0
2014-Apr-29 15:31S 32°46' W 071°30'1 0.6
2014-Apr-29 14:34S 32°45' W 071°30'0 0.1
2014-Apr-29 13:11S 32°46' W 071°30'0 0.0
2014-Apr-29 12:26S 32°46' W 071°30'0 0.0
2014-Apr-29 11:17S 32°46' W 071°30'0 0.0
2014-Apr-28 22:08S 32°45' W 071°30'0 0.0
2014-Apr-28 21:32S 32°45' W 071°30'0 0.0
2014-Apr-28 20:29S 32°45' W 071°30'0 0.0
2014-Apr-28 19:32S 32°45' W 071°30'0 0.0
2014-Apr-28 18:32S 32°45' W 071°30'0 0.0
2014-Apr-28 17:20S 32°45' W 071°30'0 0.0
2014-Apr-28 16:23S 32°45' W 071°30'0 0.0
2014-Apr-28 15:05S 32°45' W 071°30'0 0.0
2014-Apr-28 14:29S 32°46' W 071°30'0 0.0
2014-Apr-28 13:32S 32°46' W 071°30'0 0.0
2014-Apr-28 12:26S 32°46' W 071°30'0 0.0
2014-Apr-28 11:26S 32°46' W 071°30'1 0.1
2014-Apr-28 02:24S 32°45' W 071°31'4 4.9
2014-Apr-28 01:33S 32°46' W 071°36'3 3.5
2014-Apr-28 00:33S 32°48' W 071°38'3 2.5
2014-Apr-27 23:26S 32°46' W 071°37'2 2.2
2014-Apr-27 22:33S 32°44' W 071°36'1 1.3
2014-Apr-27 21:33S 32°45' W 071°37'1 1.2
2014-Apr-27 20:33S 32°46' W 071°38'4 4.3
2014-Apr-27 19:33S 32°42' W 071°41'1211.4
2014-Apr-27 18:33S 32°31' W 071°46'1211.9
2014-Apr-27 17:33S 32°20' W 071°50'1212.2
2014-Apr-27 16:33S 32°09' W 071°55'1312.2
2014-Apr-27 15:31S 31°57' W 072°01'  
Track history (hours):
 
Tides and Currents Weather Stations Pressure Air Temp Water Temp Dewpoint Dewpoint Depression Visibility Wind Speed Wind Dir Waves Ship Positions

Emirates Star

Last reported at 2014-May-01 21:31 UTC. Time now 2014-Sep-22 00:10 UTC.
Position S 32°29' W 071°45'.
Warning: this ship's position is months out of date.

Length 183 m; draft 8.1 m.

Type: Ship. MMSI: 565886000.

Date/timePositionNaut miles runAvg speedWind from/ knotsBaromVisibWave heightAir tempDewpointWater temp
2014-May-01 21:31S 32°29' W 071°45'1313.0
2014-May-01 20:33S 32°41' W 071°40'10 9.7
2014-May-01 19:33S 32°45' W 071°30'0 0.0
2014-May-01 18:24S 32°46' W 071°30'0 0.0
2014-May-01 17:33S 32°46' W 071°30'0 0.1
2014-May-01 16:33S 32°46' W 071°30'0 0.4
2014-May-01 15:31S 32°46' W 071°30'0 0.0
2014-Apr-30 16:19S 32°46' W 071°30'0 0.0
2014-Apr-30 15:07S 32°46' W 071°30'0 0.0
2014-Apr-30 14:19S 32°46' W 071°30'0 0.0
2014-Apr-29 20:10S 32°46' W 071°30'0 0.0
2014-Apr-29 17:16S 32°46' W 071°30'0 0.0
2014-Apr-29 16:13S 32°46' W 071°30'0 0.0
2014-Apr-29 15:31S 32°46' W 071°30'1 0.6
2014-Apr-29 14:34S 32°45' W 071°30'0 0.1
2014-Apr-29 13:11S 32°46' W 071°30'0 0.0
2014-Apr-29 12:26S 32°46' W 071°30'0 0.0
2014-Apr-29 11:17S 32°46' W 071°30'0 0.0
2014-Apr-28 22:08S 32°45' W 071°30'0 0.0
2014-Apr-28 21:32S 32°45' W 071°30'0 0.0
2014-Apr-28 20:29S 32°45' W 071°30'0 0.0
2014-Apr-28 19:32S 32°45' W 071°30'0 0.0
2014-Apr-28 18:32S 32°45' W 071°30'0 0.0
2014-Apr-28 17:20S 32°45' W 071°30'0 0.0
2014-Apr-28 16:23S 32°45' W 071°30'0 0.0
2014-Apr-28 15:05S 32°45' W 071°30'0 0.0
2014-Apr-28 14:29S 32°46' W 071°30'0 0.0
2014-Apr-28 13:32S 32°46' W 071°30'0 0.0
2014-Apr-28 12:26S 32°46' W 071°30'0 0.0
2014-Apr-28 11:26S 32°46' W 071°30'1 0.1
2014-Apr-28 02:24S 32°45' W 071°31'4 4.9
2014-Apr-28 01:33S 32°46' W 071°36'3 3.5
2014-Apr-28 00:33S 32°48' W 071°38'3 2.5
2014-Apr-27 23:26S 32°46' W 071°37'2 2.2
2014-Apr-27 22:33S 32°44' W 071°36'1 1.3
2014-Apr-27 21:33S 32°45' W 071°37'1 1.2
2014-Apr-27 20:33S 32°46' W 071°38'4 4.3
2014-Apr-27 19:33S 32°42' W 071°41'1211.4
2014-Apr-27 18:33S 32°31' W 071°46'1211.9
2014-Apr-27 17:33S 32°20' W 071°50'1212.2
2014-Apr-27 16:33S 32°09' W 071°55'1312.2
2014-Apr-27 15:31S 31°57' W 072°01'  

Dump ship's entire track history